Time;durP1;ratioP1;P1;durP2;ratioP2;P2;SDS_P1;SDS_P2;PMS_P1;PMS_P2;Temp;Humidity;BMP_temperature;BMP_pressure;BME280_temperature;BME280_humidity;BME280_pressure;Samples;Min_cycle;Max_cycle;Signal;HPM_P1;HPM_P2
2022/07/01 00:02:11;;;;;;;5.43;4.70;;;15.00;99.90;;;;;;5096415;28;20165;-65
2022/07/01 00:04:37;;;;;;;6.88;4.43;;;15.00;99.90;;;;;;5096838;28;20515;-65
2022/07/01 00:07:03;;;;;;;5.25;4.35;;;15.00;99.90;;;;;;5096697;28;20286;-65
2022/07/01 00:09:28;;;;;;;4.68;4.05;;;15.00;99.90;;;;;;5096425;28;20575;-65
2022/07/01 00:11:54;;;;;;;4.88;4.25;;;15.00;99.90;;;;;;5096338;28;20177;-65
2022/07/01 00:14:22;;;;;;;5.65;4.47;;;15.00;99.90;;;;;;5096151;28;20200;-65
2022/07/01 00:16:49;;;;;;;7.43;5.15;;;15.00;99.90;;;;;;5095952;28;20204;-65
2022/07/01 00:19:15;;;;;;;6.28;5.63;;;15.00;99.90;;;;;;5096012;28;20260;-65
2022/07/01 00:21:40;;;;;;;7.22;5.95;;;15.00;99.90;;;;;;5094074;28;20617;-65
2022/07/01 00:24:06;;;;;;;7.68;5.65;;;15.00;99.90;;;;;;5096010;28;20653;-65
2022/07/01 00:26:32;;;;;;;9.00;7.53;;;15.00;99.90;;;;;;5095766;28;20205;-64
2022/07/01 00:28:58;;;;;;;10.65;8.35;;;14.90;99.90;;;;;;5095760;28;20174;-65
2022/07/01 00:31:23;;;;;;;8.15;7.30;;;14.90;99.90;;;;;;5095703;28;20158;-65
2022/07/01 00:33:49;;;;;;;10.10;8.13;;;14.90;99.90;;;;;;5095924;28;20169;-65
2022/07/01 00:36:15;;;;;;;10.27;8.60;;;14.90;99.90;;;;;;5095586;28;20676;-66
2022/07/01 00:38:40;;;;;;;10.48;8.90;;;14.90;99.90;;;;;;5094208;28;20227;-65
2022/07/01 00:41:06;;;;;;;10.57;8.85;;;14.90;99.90;;;;;;5094166;28;20626;-65
2022/07/01 00:43:36;;;;;;;13.63;9.05;;;14.90;99.90;;;;;;5095304;28;20630;-65
2022/07/01 00:46:02;;;;;;;10.50;8.55;;;14.90;99.90;;;;;;5095617;28;20166;-65
2022/07/01 00:48:28;;;;;;;11.02;7.97;;;15.00;99.90;;;;;;5095221;28;20252;-65
2022/07/01 00:50:54;;;;;;;11.35;8.80;;;15.00;99.90;;;;;;5095239;28;20177;-65
2022/07/01 00:53:21;;;;;;;12.88;10.05;;;15.20;99.90;;;;;;5093872;28;20177;-65
2022/07/01 00:55:46;;;;;;;11.88;9.68;;;15.10;99.90;;;;;;5093875;28;20173;-65
2022/07/01 00:58:12;;;;;;;11.27;9.23;;;15.10;99.90;;;;;;5093409;28;20201;-66
2022/07/01 01:00:38;;;;;;;12.00;9.10;;;15.10;99.90;;;;;;5094976;28;20575;-65
2022/07/01 01:03:07;;;;;;;13.15;8.85;;;15.10;99.90;;;;;;5095251;28;20226;-65
2022/07/01 01:05:34;;;;;;;10.85;8.70;;;15.10;99.90;;;;;;5095005;28;20173;-65
2022/07/01 01:08:00;;;;;;;11.77;8.30;;;15.20;99.90;;;;;;5094772;28;20250;-65
2022/07/01 01:10:27;;;;;;;11.07;8.82;;;15.20;99.90;;;;;;5095364;28;20185;-65
2022/07/01 01:12:55;;;;;;;11.70;8.75;;;15.20;99.90;;;;;;5093281;28;20246;-65
2022/07/01 01:15:21;;;;;;;11.73;8.93;;;15.20;99.90;;;;;;5094602;28;20178;-66
2022/07/01 01:17:48;;;;;;;11.57;8.55;;;15.10;99.90;;;;;;5093273;28;20692;-65
2022/07/01 01:20:15;;;;;;;9.88;8.45;;;15.10;99.90;;;;;;5094572;28;20204;-65
2022/07/01 01:22:43;;;;;;;13.05;8.98;;;15.10;99.90;;;;;;5094591;28;20255;-65
2022/07/01 01:25:08;;;;;;;9.65;8.00;;;15.00;99.90;;;;;;5094523;28;20218;-65
2022/07/01 01:27:34;;;;;;;8.93;7.75;;;15.10;99.90;;;;;;5094431;28;20205;-65
2022/07/01 01:30:00;;;;;;;13.68;8.77;;;15.00;99.90;;;;;;5095073;28;20177;-65
2022/07/01 01:32:26;;;;;;;11.43;8.70;;;15.00;99.90;;;;;;5093253;28;20174;-65
2022/07/01 01:34:51;;;;;;;9.60;7.93;;;15.00;99.90;;;;;;5093402;28;20181;-65
2022/07/01 01:37:17;;;;;;;13.00;9.45;;;14.90;99.90;;;;;;5094378;28;20197;-65
2022/07/01 01:39:43;;;;;;;12.88;8.95;;;14.80;99.90;;;;;;5094849;28;20189;-65
2022/07/01 01:42:08;;;;;;;11.90;8.57;;;14.80;99.90;;;;;;5094008;28;20612;-65
2022/07/01 01:44:34;;;;;;;11.48;8.43;;;14.90;99.90;;;;;;5094490;28;20169;-65
2022/07/01 01:47:00;;;;;;;14.18;9.45;;;14.80;99.90;;;;;;5094123;28;20209;-65
2022/07/01 01:49:26;;;;;;;13.80;9.52;;;14.90;99.90;;;;;;5094148;28;20184;-65
2022/07/01 01:51:52;;;;;;;11.65;9.00;;;14.90;99.90;;;;;;5094082;28;20173;-65
2022/07/01 01:54:18;;;;;;;15.25;9.95;;;14.90;99.90;;;;;;5094633;28;20169;-64
2022/07/01 01:56:44;;;;;;;14.25;9.43;;;14.80;99.90;;;;;;5093633;28;20189;-65
2022/07/01 01:59:11;;;;;;;13.48;9.35;;;14.80;99.90;;;;;;5092723;28;20254;-64
2022/07/01 02:01:38;;;;;;;12.90;9.23;;;14.80;99.90;;;;;;5093986;28;20170;-64
2022/07/01 02:04:04;;;;;;;11.38;8.00;;;14.70;99.90;;;;;;5094234;28;20656;-65
2022/07/01 02:06:29;;;;;;;13.68;8.70;;;14.70;99.90;;;;;;5092487;28;20205;-65
2022/07/01 02:08:55;;;;;;;15.20;8.63;;;14.70;99.90;;;;;;5092579;28;20185;-65
2022/07/01 02:11:21;;;;;;;12.85;8.95;;;14.70;99.90;;;;;;5093797;28;20286;-67
2022/07/01 02:13:47;;;;;;;11.02;8.43;;;14.70;99.90;;;;;;5093485;28;20199;-67
2022/07/01 02:16:12;;;;;;;15.70;10.52;;;14.70;99.90;;;;;;5093793;28;20231;-67
2022/07/01 02:18:38;;;;;;;13.52;9.85;;;14.70;99.90;;;;;;5093918;28;20279;-67
2022/07/01 02:21:04;;;;;;;16.23;10.75;;;14.70;99.90;;;;;;5093904;28;20173;-67
2022/07/01 02:23:30;;;;;;;14.90;10.85;;;14.70;99.90;;;;;;5092505;28;20637;-67
2022/07/01 02:25:56;;;;;;;16.52;11.65;;;14.70;99.90;;;;;;5093589;28;20173;-67
2022/07/01 02:28:21;;;;;;;15.52;10.95;;;14.60;99.90;;;;;;5093489;28;20161;-67
2022/07/01 02:30:47;;;;;;;16.13;9.73;;;14.60;99.90;;;;;;5093505;28;20188;-67
2022/07/01 02:33:13;;;;;;;14.23;10.77;;;14.70;99.90;;;;;;5093531;28;20235;-67
2022/07/01 02:35:41;;;;;;;14.55;10.73;;;14.70;99.90;;;;;;5093517;28;20177;-67
2022/07/01 02:38:10;;;;;;;16.20;10.45;;;14.60;99.90;;;;;;5093410;28;20283;-67
2022/07/01 02:40:39;;;;;;;14.02;10.32;;;14.60;99.90;;;;;;5093709;28;20656;-67
2022/07/01 02:43:08;;;;;;;14.93;9.02;;;14.70;99.90;;;;;;5093245;28;20623;-67
2022/07/01 02:45:34;;;;;;;14.25;9.05;;;14.60;99.90;;;;;;5095196;28;20165;-67
2022/07/01 02:48:01;;;;;;;13.18;9.13;;;14.70;99.90;;;;;;5096331;28;20204;-67
2022/07/01 02:50:28;;;;;;;12.07;8.13;;;14.70;99.90;;;;;;5097541;28;20599;-67
2022/07/01 02:52:54;;;;;;;12.13;8.73;;;14.70;99.90;;;;;;5096148;28;20543;-67
2022/07/01 02:55:20;;;;;;;12.05;7.93;;;14.70;99.90;;;;;;5098021;28;20255;-67
2022/07/01 02:57:49;;;;;;;12.18;8.15;;;14.60;99.90;;;;;;5097627;28;20192;-67
2022/07/01 03:00:15;;;;;;;10.90;7.80;;;14.70;99.90;;;;;;5096151;28;20173;-67
2022/07/01 03:02:41;;;;;;;10.45;7.85;;;14.60;99.90;;;;;;5097655;28;20173;-67
2022/07/01 03:05:08;;;;;;;9.95;7.53;;;14.60;99.90;;;;;;5096069;28;20169;-67
2022/07/01 03:07:36;;;;;;;9.55;7.32;;;14.60;99.90;;;;;;5096005;28;20207;-67
2022/07/01 03:10:03;;;;;;;10.30;6.95;;;14.50;99.90;;;;;;5096220;28;20181;-67
2022/07/01 03:12:29;;;;;;;9.25;6.75;;;14.50;99.90;;;;;;5096832;28;20181;-66
2022/07/01 03:14:57;;;;;;;11.63;6.40;;;14.50;99.90;;;;;;5097635;28;20173;-66
2022/07/01 03:17:24;;;;;;;9.57;6.70;;;14.50;99.90;;;;;;5095632;28;20305;-66
2022/07/01 03:19:51;;;;;;;9.63;6.65;;;14.50;99.90;;;;;;5097035;28;20204;-66
2022/07/01 03:22:17;;;;;;;9.02;6.38;;;14.50;99.90;;;;;;5097244;28;20183;-66
2022/07/01 03:24:43;;;;;;;9.07;4.95;;;14.50;99.90;;;;;;5097739;28;20169;-66
2022/07/01 03:27:10;;;;;;;10.05;5.45;;;14.50;99.90;;;;;;5096806;28;20631;-66
2022/07/01 03:29:38;;;;;;;6.03;5.07;;;14.50;99.90;;;;;;5095843;28;20169;-67
2022/07/01 03:32:05;;;;;;;7.22;5.05;;;14.50;99.90;;;;;;5095592;28;20630;-67
2022/07/01 03:34:31;;;;;;;6.85;4.78;;;14.40;99.90;;;;;;5095470;28;20184;-67
2022/07/01 03:37:02;;;;;;;7.82;5.47;;;14.40;99.90;;;;;;5095501;28;20271;-67
2022/07/01 03:39:31;;;;;;;7.40;5.65;;;14.40;99.90;;;;;;5095502;28;20713;-67
2022/07/01 03:41:59;;;;;;;7.55;5.20;;;14.30;99.90;;;;;;5096346;28;20606;-67
2022/07/01 03:44:27;;;;;;;8.52;5.53;;;14.30;99.90;;;;;;5078312;28;20183;-67
2022/07/01 03:46:54;;;;;;;9.13;5.50;;;14.20;99.90;;;;;;5095784;28;20579;-67
2022/07/01 03:49:22;;;;;;;8.25;5.30;;;14.20;99.90;;;;;;5095116;28;20189;-67
2022/07/01 03:51:54;;;;;;;11.13;6.05;;;14.20;99.90;;;;;;5078742;28;20264;-67
2022/07/01 03:54:30;;;;;;;8.77;5.78;;;14.10;99.90;;;;;;5095146;28;20180;-67
2022/07/01 03:57:10;;;;;;;11.43;6.35;;;14.00;99.90;;;;;;5094821;28;20200;-67
2022/07/01 03:59:42;;;;;;;10.32;6.07;;;14.10;99.90;;;;;;5094941;28;20200;-67
2022/07/01 04:02:11;;;;;;;10.05;5.95;;;14.10;99.90;;;;;;5096204;28;20181;-67
2022/07/01 04:04:43;;;;;;;8.88;6.05;;;14.10;99.90;;;;;;5078076;28;20596;-67
2022/07/01 04:07:13;;;;;;;9.32;6.18;;;14.10;99.90;;;;;;5094840;28;20197;-67
2022/07/01 04:09:39;;;;;;;9.88;6.32;;;14.00;99.90;;;;;;5078385;28;20181;-67
2022/07/01 04:12:08;;;;;;;9.80;6.20;;;14.00;99.90;;;;;;5078051;28;20250;-66
2022/07/01 04:14:37;;;;;;;9.10;5.80;;;14.00;99.90;;;;;;5095101;28;20196;-67
2022/07/01 04:17:07;;;;;;;10.18;6.97;;;14.00;99.90;;;;;;5077667;28;20221;-67
2022/07/01 04:19:37;;;;;;;10.18;7.10;;;14.10;99.90;;;;;;5105249;28;20249;-67
2022/07/01 04:24:51;;;;;;;11.02;7.07;;;14.10;99.90;;;;;;5116686;28;20652;-67
2022/07/01 04:27:17;;;;;;;10.20;7.38;;;14.10;99.90;;;;;;5096358;28;20649;-67
2022/07/01 04:29:43;;;;;;;11.10;7.38;;;14.10;99.90;;;;;;5116311;28;20759;-67
2022/07/01 04:32:11;;;;;;;13.73;7.45;;;14.10;99.90;;;;;;5114756;28;20702;-67
2022/07/01 04:34:41;;;;;;;12.05;7.75;;;14.10;99.90;;;;;;5114357;28;20226;-67
2022/07/01 04:37:08;;;;;;;11.20;7.55;;;14.20;99.90;;;;;;5115876;28;20211;-67
2022/07/01 04:39:37;;;;;;;9.80;7.53;;;14.10;99.90;;;;;;5114153;28;20187;-67
2022/07/01 04:42:04;;;;;;;10.27;7.50;;;14.10;99.90;;;;;;5114395;28;20264;-66
2022/07/01 04:44:33;;;;;;;14.90;8.20;;;14.10;99.90;;;;;;5115957;28;20168;-67
2022/07/01 04:47:00;;;;;;;10.85;6.72;;;14.20;99.90;;;;;;5114690;28;20207;-67
2022/07/01 04:49:27;;;;;;;10.55;7.07;;;14.30;99.90;;;;;;5114375;28;20216;-67
2022/07/01 04:51:57;;;;;;;10.00;6.80;;;14.40;99.90;;;;;;5114674;27;20184;-67
2022/07/01 04:54:28;;;;;;;13.85;7.18;;;14.40;99.90;;;;;;5116205;28;20168;-67
2022/07/01 04:56:54;;;;;;;9.77;7.05;;;14.40;99.90;;;;;;5097737;28;20200;-67
2022/07/01 04:59:21;;;;;;;10.55;6.65;;;14.40;99.90;;;;;;5116184;27;20188;-67
2022/07/01 05:01:50;;;;;;;8.65;6.32;;;14.40;99.90;;;;;;5114154;28;20226;-67
2022/07/01 05:04:19;;;;;;;10.23;6.65;;;14.40;99.90;;;;;;5114214;28;20177;-67
2022/07/01 05:06:52;;;;;;;10.60;6.93;;;14.50;99.90;;;;;;5114115;28;20241;-67
2022/07/01 05:09:18;;;;;;;11.07;6.97;;;14.50;99.90;;;;;;5115470;28;20241;-67
2022/07/01 05:11:45;;;;;;;12.23;6.80;;;14.50;99.90;;;;;;5114094;28;20227;-67
2022/07/01 05:14:11;;;;;;;12.65;6.75;;;14.50;99.90;;;;;;5097076;28;20188;-67
2022/07/01 05:16:45;;;;;;;8.73;6.57;;;14.50;99.90;;;;;;5115073;28;20288;-67
2022/07/01 05:22:00;;;;;;;14.48;6.32;;;14.50;99.90;;;;;;5115414;28;20184;-67
2022/07/01 05:24:35;;;;;;;9.55;6.72;;;14.50;99.90;;;;;;5114359;28;20188;-67
2022/07/01 05:27:18;;;;;;;11.82;6.82;;;14.50;99.90;;;;;;5114617;28;20219;-67
2022/07/01 05:29:45;;;;;;;9.25;6.40;;;14.50;99.90;;;;;;5115035;28;20250;-67
2022/07/01 05:32:17;;;;;;;9.07;6.43;;;14.50;99.90;;;;;;5114998;28;20176;-67
2022/07/01 05:34:46;;;;;;;12.38;6.43;;;14.50;99.90;;;;;;5113697;28;20572;-67
2022/07/01 05:37:13;;;;;;;7.43;6.10;;;14.60;99.90;;;;;;5096664;28;20205;-68
2022/07/01 05:39:39;;;;;;;8.60;6.30;;;14.60;99.90;;;;;;5096585;28;20184;-67
2022/07/01 05:42:06;;;;;;;10.25;6.45;;;14.60;99.90;;;;;;5113486;28;20195;-67
2022/07/01 05:44:32;;;;;;;7.63;6.40;;;14.60;99.90;;;;;;5114755;28;20173;-67
2022/07/01 05:46:59;;;;;;;13.30;7.40;;;14.60;99.90;;;;;;5097104;28;20197;-67
2022/07/01 05:49:32;;;;;;;13.00;7.22;;;14.70;99.90;;;;;;5105916;28;20208;-67
2022/07/01 05:52:03;;;;;;;12.45;6.90;;;14.70;99.90;;;;;;5094650;28;20210;-68
2022/07/01 05:54:29;;;;;;;11.05;6.85;;;14.70;99.90;;;;;;5078062;28;20218;-68
2022/07/01 05:56:59;;;;;;;13.45;7.72;;;14.70;99.90;;;;;;5094716;28;20201;-68
2022/07/01 05:59:35;;;;;;;10.30;7.90;;;14.60;99.90;;;;;;5093126;28;20180;-67
2022/07/01 06:02:01;;;;;;;10.95;7.47;;;14.60;99.90;;;;;;5092849;28;20180;-67
2022/07/01 06:04:27;;;;;;;11.23;7.00;;;14.60;99.90;;;;;;5059502;28;20235;-67
2022/07/01 06:07:01;;;;;;;8.40;6.95;;;14.60;99.90;;;;;;5093078;28;20295;-67
2022/07/01 06:09:27;;;;;;;10.18;6.93;;;14.80;99.90;;;;;;5093563;28;20256;-67
2022/07/01 06:11:53;;;;;;;9.85;7.22;;;14.80;99.90;;;;;;5093817;28;20196;-68
2022/07/01 06:14:19;;;;;;;10.93;7.80;;;14.80;99.90;;;;;;5093508;28;20185;-67
2022/07/01 06:16:47;;;;;;;8.73;7.60;;;14.80;99.90;;;;;;5094698;28;20265;-68
2022/07/01 06:19:17;;;;;;;9.95;6.75;;;14.80;99.90;;;;;;5092895;28;20201;-67
2022/07/01 06:21:46;;;;;;;8.82;6.57;;;14.90;99.90;;;;;;5092769;28;20185;-67
2022/07/01 06:24:19;;;;;;;10.35;6.93;;;15.00;99.90;;;;;;5093093;28;20181;-67
2022/07/01 06:26:48;;;;;;;12.80;7.47;;;14.90;99.90;;;;;;5093121;28;20693;-67
2022/07/01 06:29:16;;;;;;;9.05;7.32;;;15.00;99.90;;;;;;5092500;28;20556;-67
2022/07/01 06:31:42;;;;;;;11.80;7.55;;;15.00;99.90;;;;;;5094459;28;20177;-68
2022/07/01 06:34:08;;;;;;;11.77;8.57;;;15.00;99.90;;;;;;5093044;28;20177;-68
2022/07/01 06:36:33;;;;;;;11.82;7.90;;;15.00;99.90;;;;;;5093075;28;20196;-68
2022/07/01 06:38:59;;;;;;;13.30;7.68;;;14.90;99.90;;;;;;5092489;28;20212;-68
2022/07/01 06:41:28;;;;;;;11.40;8.10;;;14.90;99.90;;;;;;5094161;28;20576;-69
2022/07/01 06:43:55;;;;;;;12.70;7.78;;;15.00;99.90;;;;;;5093525;28;20187;-68
2022/07/01 06:46:21;;;;;;;10.45;7.35;;;15.00;99.90;;;;;;5093993;28;20223;-68
2022/07/01 06:48:47;;;;;;;11.30;7.97;;;15.00;99.90;;;;;;5094256;28;20658;-68
2022/07/01 06:51:13;;;;;;;9.82;7.55;;;15.20;99.90;;;;;;5093760;28;20212;-69
2022/07/01 06:53:39;;;;;;;9.52;6.90;;;15.20;99.90;;;;;;5094034;28;20187;-68
2022/07/01 06:56:05;;;;;;;8.93;6.63;;;15.30;99.90;;;;;;5092285;28;20174;-69
2022/07/01 06:58:31;;;;;;;7.22;5.80;;;15.30;99.90;;;;;;5093424;28;20201;-69
2022/07/01 07:00:57;;;;;;;11.25;6.65;;;15.30;99.90;;;;;;5092524;28;20181;-68
2022/07/01 07:03:23;;;;;;;8.35;6.75;;;15.30;99.90;;;;;;5094643;28;20169;-69
2022/07/01 07:05:49;;;;;;;10.70;6.65;;;15.30;99.90;;;;;;5092660;28;20555;-69
2022/07/01 07:08:15;;;;;;;9.57;5.70;;;15.40;99.90;;;;;;5093681;28;20189;-70
2022/07/01 07:10:41;;;;;;;12.93;6.40;;;15.40;99.90;;;;;;5093605;28;20208;-69
2022/07/01 07:13:07;;;;;;;7.97;5.90;;;15.50;99.90;;;;;;5093525;28;20207;-70
2022/07/01 07:15:33;;;;;;;7.50;5.75;;;15.60;99.90;;;;;;5092272;28;20640;-69
2022/07/01 07:17:59;;;;;;;9.82;5.75;;;15.70;99.90;;;;;;5092500;28;20224;-69
2022/07/01 07:20:26;;;;;;;11.05;6.03;;;15.90;99.90;;;;;;5093796;28;20188;-68
2022/07/01 07:22:52;;;;;;;9.23;5.22;;;16.00;99.90;;;;;;5093662;28;20638;-69
2022/07/01 07:25:18;;;;;;;7.05;5.22;;;16.10;99.90;;;;;;5093578;28;20627;-68
2022/07/01 07:27:47;;;;;;;8.73;6.00;;;16.10;99.90;;;;;;5091610;28;20212;-68
2022/07/01 07:30:13;;;;;;;6.05;5.05;;;16.10;99.90;;;;;;5093135;28;20173;-69
2022/07/01 07:32:39;;;;;;;8.93;5.85;;;16.40;99.90;;;;;;5096288;28;20230;-69
2022/07/01 07:35:06;;;;;;;9.52;5.50;;;16.60;99.90;;;;;;5097007;28;20169;-68
2022/07/01 07:37:32;;;;;;;7.10;5.55;;;16.60;99.90;;;;;;5095614;28;20211;-68
2022/07/01 07:40:03;;;;;;;7.00;5.40;;;16.40;99.90;;;;;;5095668;28;20166;-68
2022/07/01 07:42:29;;;;;;;7.95;5.13;;;16.40;99.90;;;;;;5095737;28;20162;-68
2022/07/01 07:44:55;;;;;;;6.22;4.65;;;16.30;99.90;;;;;;5096643;28;20657;-69
2022/07/01 07:47:21;;;;;;;7.45;4.47;;;16.30;99.90;;;;;;5096723;28;20231;-67
2022/07/01 07:49:47;;;;;;;9.07;4.30;;;16.30;99.90;;;;;;5096518;28;20227;-67
2022/07/01 07:52:13;;;;;;;6.97;4.50;;;16.20;99.90;;;;;;5096589;28;20208;-67
2022/07/01 07:54:39;;;;;;;5.90;4.50;;;16.10;99.90;;;;;;5096449;28;20642;-67
2022/07/01 07:57:06;;;;;;;9.50;4.53;;;16.10;99.90;;;;;;5095038;28;20208;-67
2022/07/01 07:59:32;;;;;;;7.45;4.60;;;16.20;99.90;;;;;;5094805;28;20173;-67
2022/07/01 08:01:58;;;;;;;6.10;4.13;;;16.30;99.90;;;;;;5096198;28;20184;-67
2022/07/01 08:04:23;;;;;;;5.85;4.05;;;16.30;99.90;;;;;;5096321;28;20173;-67
2022/07/01 08:06:49;;;;;;;8.20;4.10;;;16.50;99.90;;;;;;5095179;28;20564;-68
2022/07/01 08:09:15;;;;;;;7.57;3.85;;;16.40;99.90;;;;;;5096106;28;20251;-68
2022/07/01 08:11:41;;;;;;;8.15;4.15;;;16.40;99.90;;;;;;5095123;28;20557;-67
2022/07/01 08:14:07;;;;;;;4.80;3.65;;;16.40;99.90;;;;;;5095942;28;20169;-68
2022/07/01 08:16:33;;;;;;;6.40;4.10;;;16.30;99.90;;;;;;5095838;28;20212;-67
2022/07/01 08:18:59;;;;;;;7.03;4.00;;;16.30;99.90;;;;;;5094591;28;20575;-67
2022/07/01 08:21:24;;;;;;;7.75;3.85;;;16.30;99.90;;;;;;5095879;28;20176;-68
2022/07/01 08:23:50;;;;;;;9.93;4.32;;;16.30;99.90;;;;;;5096305;28;20260;-68
2022/07/01 08:26:17;;;;;;;4.22;3.83;;;16.30;99.90;;;;;;5095740;28;20201;-67
2022/07/01 08:28:43;;;;;;;6.28;4.30;;;16.40;99.90;;;;;;5095624;28;20157;-68
2022/07/01 08:31:09;;;;;;;7.40;3.95;;;16.50;99.90;;;;;;5094369;28;20260;-68
2022/07/01 08:33:37;;;;;;;6.82;4.03;;;16.60;99.90;;;;;;5095895;28;20184;-68
2022/07/01 08:36:07;;;;;;;8.05;3.60;;;16.70;99.90;;;;;;5095882;28;20153;-68
2022/07/01 08:38:33;;;;;;;7.03;3.80;;;16.70;99.90;;;;;;5095904;28;20201;-68
2022/07/01 08:41:00;;;;;;;6.15;3.35;;;16.90;99.90;;;;;;5095757;28;20638;-68
2022/07/01 08:43:27;;;;;;;5.97;3.72;;;17.00;99.90;;;;;;5094685;28;20169;-68
2022/07/01 08:45:53;;;;;;;7.20;3.80;;;17.00;99.90;;;;;;5095533;28;20669;-69
2022/07/01 08:48:19;;;;;;;7.88;3.80;;;17.10;99.90;;;;;;5095259;28;20276;-68
2022/07/01 08:50:46;;;;;;;6.07;3.40;;;17.20;99.90;;;;;;5095565;28;20181;-68
2022/07/01 08:53:13;;;;;;;6.28;3.67;;;17.10;99.90;;;;;;5095580;28;20187;-68
2022/07/01 08:58:26;;;;;;;3.53;3.22;;;16.90;99.90;;;;;;5095479;28;20192;-68
2022/07/01 09:00:53;;;;;;;8.23;3.63;;;16.80;99.90;;;;;;5094052;28;20181;-68
2022/07/01 09:03:22;;;;;;;8.43;3.75;;;16.90;99.90;;;;;;5093986;28;20173;-68
2022/07/01 09:05:51;;;;;;;5.47;3.80;;;16.90;99.90;;;;;;5093796;28;20601;-68
2022/07/01 09:08:17;;;;;;;4.90;3.55;;;16.80;99.90;;;;;;5093712;28;20204;-68
2022/07/01 09:10:43;;;;;;;6.85;3.72;;;16.70;99.90;;;;;;5094279;28;20181;-68
2022/07/01 09:13:11;;;;;;;7.95;3.47;;;16.70;99.90;;;;;;5094951;28;20649;-68
2022/07/01 09:15:38;;;;;;;6.18;3.83;;;16.70;99.90;;;;;;5095089;28;20599;-68
2022/07/01 09:18:15;;;;;;;6.32;3.78;;;16.80;99.90;;;;;;5094598;28;20586;-68
2022/07/01 09:20:48;;;;;;;6.20;3.97;;;16.90;99.90;;;;;;5094644;28;20173;-69
2022/07/01 09:23:16;;;;;;;7.03;3.63;;;17.00;99.90;;;;;;5094750;28;20235;-68
2022/07/01 09:25:47;;;;;;;6.05;3.60;;;17.20;99.90;;;;;;5094496;28;20173;-68
2022/07/01 09:28:24;;;;;;;11.65;3.90;;;17.20;99.90;;;;;;5094902;28;20232;-68
2022/07/01 09:30:53;;;;;;;7.03;3.80;;;17.40;99.90;;;;;;5093203;28;20212;-68
2022/07/01 09:33:21;;;;;;;4.90;3.72;;;17.50;99.90;;;;;;5094471;28;20181;-68
2022/07/01 09:35:51;;;;;;;6.25;3.60;;;17.60;99.90;;;;;;5094503;28;20180;-68
2022/07/01 09:38:22;;;;;;;8.07;3.90;;;17.70;99.90;;;;;;5093001;28;20235;-68
2022/07/01 09:40:48;;;;;;;6.35;4.13;;;17.50;99.90;;;;;;5094669;28;20161;-68
2022/07/01 09:43:19;;;;;;;6.78;3.55;;;17.40;99.90;;;;;;5094087;28;20168;-68
2022/07/01 09:45:58;;;;;;;4.03;3.30;;;17.30;99.90;;;;;;5094946;28;20210;-69
2022/07/01 09:48:41;;;;;;;5.85;3.42;;;17.40;99.90;;;;;;5092987;28;20177;-69
2022/07/01 09:51:09;;;;;;;5.22;3.58;;;17.50;99.90;;;;;;5094556;28;20618;-69
2022/07/01 09:53:35;;;;;;;7.53;3.60;;;17.70;99.90;;;;;;5092738;28;20634;-69
2022/07/01 09:56:01;;;;;;;3.42;2.80;;;18.00;99.90;;;;;;5091930;28;20188;-69
2022/07/01 09:58:27;;;;;;;9.05;3.65;;;18.40;99.90;;;;;;5092561;28;20200;-69
2022/07/01 10:00:54;;;;;;;3.90;3.30;;;18.70;99.90;;;;;;5094494;28;20172;-69
2022/07/01 10:03:21;;;;;;;6.50;2.78;;;18.60;99.90;;;;;;5093992;28;20642;-69
2022/07/01 10:06:22;;;;;;;3.97;2.58;;;18.40;99.90;;;;;;5093837;28;20192;-69
2022/07/01 10:09:08;;;;;;;4.72;2.55;;;18.30;99.90;;;;;;5093883;28;20157;-69
2022/07/01 10:12:02;;;;;;;4.60;2.80;;;18.20;99.90;;;;;;5092699;28;20172;-69
2022/07/01 10:14:30;;;;;;;4.40;2.97;;;18.20;99.90;;;;;;5093803;28;20240;-69
2022/07/01 10:16:57;;;;;;;6.10;2.80;;;18.20;99.90;;;;;;5092312;28;20677;-69
2022/07/01 10:19:26;;;;;;;5.15;2.75;;;18.40;99.90;;;;;;5092729;28;20331;-69
2022/07/01 10:21:56;;;;;;;4.97;2.83;;;18.90;99.90;;;;;;5093995;28;20248;-69
2022/07/01 10:24:23;;;;;;;4.53;2.83;;;19.10;99.90;;;;;;5094234;28;20192;-69
2022/07/01 10:26:49;;;;;;;5.57;3.15;;;19.10;99.90;;;;;;5092406;28;20197;-69
2022/07/01 10:29:35;;;;;;;4.78;3.20;;;19.30;99.90;;;;;;5093704;28;20173;-69
2022/07/01 10:32:08;;;;;;;6.93;3.13;;;19.20;99.90;;;;;;5092548;28;20232;-69
2022/07/01 10:34:40;;;;;;;4.65;2.70;;;19.20;99.90;;;;;;5093787;28;20632;-69
2022/07/01 10:37:11;;;;;;;6.20;2.92;;;19.20;99.90;;;;;;5094447;28;20211;-69
2022/07/01 10:40:03;;;;;;;7.22;2.70;;;19.20;99.90;;;;;;5093809;28;20165;-69
2022/07/01 10:42:55;;;;;;;4.32;2.65;;;18.80;99.90;;;;;;5093795;28;20178;-69
2022/07/01 10:45:21;;;;;;;5.13;2.75;;;18.60;99.90;;;;;;5092091;28;20177;-69
2022/07/01 10:47:46;;;;;;;3.03;2.70;;;18.30;99.90;;;;;;5093658;28;20730;-69
2022/07/01 10:50:16;;;;;;;6.28;2.80;;;18.10;99.90;;;;;;5093773;28;20774;-69
2022/07/01 10:53:02;;;;;;;3.85;2.70;;;17.90;99.90;;;;;;5093837;28;20169;-69
2022/07/01 10:55:44;;;;;;;6.55;3.10;;;17.60;99.90;;;;;;5093413;28;20173;-69
2022/07/01 10:58:10;;;;;;;3.80;2.85;;;17.50;99.90;;;;;;5092402;28;20684;-69
2022/07/01 11:00:40;;;;;;;5.57;3.10;;;17.50;99.90;;;;;;5093489;28;20661;-69
2022/07/01 11:03:07;;;;;;;5.00;2.80;;;17.40;99.90;;;;;;5093436;28;20165;-69
2022/07/01 11:05:35;;;;;;;4.03;3.00;;;17.40;99.90;;;;;;5092410;28;20233;-69
2022/07/01 11:08:00;;;;;;;4.97;3.20;;;17.40;99.90;;;;;;5097469;28;20189;-69
2022/07/01 11:10:26;;;;;;;4.75;3.42;;;17.50;99.90;;;;;;5097574;28;20272;-69
2022/07/01 11:12:52;;;;;;;5.60;2.92;;;17.70;99.90;;;;;;5096299;28;20181;-69
2022/07/01 11:15:18;;;;;;;5.07;3.65;;;17.70;99.90;;;;;;5095916;28;20637;-68
2022/07/01 11:17:48;;;;;;;4.78;3.30;;;17.80;99.90;;;;;;5099321;28;20665;-68
2022/07/01 11:20:14;;;;;;;6.47;2.95;;;17.70;99.90;;;;;;5097833;28;20212;-68
2022/07/01 11:22:40;;;;;;;4.32;2.72;;;17.70;99.90;;;;;;5097692;28;20178;-68
2022/07/01 11:25:11;;;;;;;4.90;3.17;;;17.70;99.90;;;;;;5096148;28;20235;-68
2022/07/01 11:27:38;;;;;;;6.85;2.97;;;17.80;99.90;;;;;;5095791;28;20200;-68
2022/07/01 11:30:11;;;;;;;3.65;2.47;;;17.90;99.90;;;;;;5095714;28;20193;-68
2022/07/01 11:32:43;;;;;;;5.88;2.80;;;18.10;99.90;;;;;;5097458;28;20154;-68
2022/07/01 11:41:18;;;;;;;5.40;2.72;;;19.20;99.90;;;;;;5097522;28;20195;-68
2022/07/01 11:43:44;;;;;;;3.63;2.28;;;19.90;99.90;;;;;;5097442;28;20244;-68
2022/07/01 11:46:10;;;;;;;4.00;2.80;;;20.10;99.90;;;;;;5099301;28;20205;-68
2022/07/01 11:48:41;;;;;;;6.30;2.42;;;20.30;99.90;;;;;;5103027;28;20182;-68
2022/07/01 11:51:13;;;;;;;3.33;2.50;;;20.30;99.90;;;;;;5105817;28;20165;-68
2022/07/01 11:53:41;;;;;;;2.17;1.98;;;20.00;99.90;;;;;;5098968;28;20172;-68
2022/07/01 11:56:07;;;;;;;4.50;2.10;;;19.60;99.90;;;;;;5096718;28;20184;-67
2022/07/01 11:58:48;;;;;;;4.10;2.42;;;19.20;99.90;;;;;;5097066;28;20201;-67
2022/07/01 12:01:29;;;;;;;6.55;2.40;;;18.80;99.90;;;;;;5095699;28;20177;-68
2022/07/01 12:03:57;;;;;;;4.22;2.17;;;18.80;99.90;;;;;;5097298;28;20227;-68
2022/07/01 12:06:23;;;;;;;3.88;2.20;;;18.90;99.90;;;;;;5095621;28;20691;-68
2022/07/01 12:08:53;;;;;;;3.67;2.03;;;19.40;99.90;;;;;;5096506;28;20539;-68
2022/07/01 12:11:21;;;;;;;4.72;2.05;;;19.90;99.90;;;;;;5096365;28;20181;-68
2022/07/01 12:13:49;;;;;;;2.80;1.90;;;20.40;99.90;;;;;;5096326;28;20169;-68
2022/07/01 12:16:15;;;;;;;3.63;1.80;;;20.70;99.90;;;;;;5096265;28;20179;-69
2022/07/01 12:19:00;;;;;;;3.50;1.65;;;20.50;99.90;;;;;;5098531;28;20201;-68
2022/07/01 12:21:28;;;;;;;4.53;1.77;;;20.30;99.90;;;;;;5115752;28;20165;-68
2022/07/01 12:24:03;;;;;;;4.00;2.13;;;20.30;99.90;;;;;;5116641;28;20168;-68
2022/07/01 12:26:28;;;;;;;4.15;1.80;;;20.20;99.90;;;;;;5115433;28;20262;-68
2022/07/01 12:28:54;;;;;;;4.07;2.00;;;20.20;99.90;;;;;;5116482;28;20186;-68
2022/07/01 12:31:20;;;;;;;4.35;1.80;;;20.50;99.90;;;;;;5117381;28;20257;-68
2022/07/01 12:33:51;;;;;;;2.78;1.50;;;20.90;99.90;;;;;;5115705;28;20177;-69
2022/07/01 12:36:18;;;;;;;3.45;1.65;;;21.40;99.90;;;;;;5116693;28;20172;-67
2022/07/01 12:38:44;;;;;;;2.22;1.60;;;21.30;99.90;;;;;;5115047;28;20290;-67
2022/07/01 12:41:35;;;;;;;1.60;1.50;;;21.10;99.90;;;;;;5116365;28;20211;-67
2022/07/01 12:44:20;;;;;;;1.80;1.60;;;21.50;99.90;;;;;;5116204;28;20195;-67
2022/07/01 12:46:46;;;;;;;2.72;1.65;;;21.70;99.90;;;;;;5114850;28;20192;-67
2022/07/01 12:49:23;;;;;;;4.10;1.60;;;21.90;99.90;;;;;;5108535;28;20173;-67
2022/07/01 12:51:49;;;;;;;2.92;1.48;;;22.30;99.90;;;;;;5094178;28;20176;-67
2022/07/01 12:54:31;;;;;;;2.58;1.48;;;22.10;99.90;;;;;;5094039;28;20668;-67
2022/07/01 12:56:58;;;;;;;1.75;1.55;;;22.20;99.90;;;;;;5094096;28;20239;-66
2022/07/01 12:59:24;;;;;;;2.75;1.90;;;22.50;99.90;;;;;;5095005;28;20207;-67
2022/07/01 13:01:51;;;;;;;1.95;1.55;;;22.90;99.90;;;;;;5096004;28;20161;-67
2022/07/01 13:04:27;;;;;;;1.77;1.42;;;22.60;99.90;;;;;;5095786;28;20173;-67